createdAt,value
2019-03-05T00:00:26.310Z,4.20
2019-03-05T00:02:54.764Z,3.17
2019-03-05T00:05:23.478Z,4.20
2019-03-05T00:07:51.938Z,3.67
2019-03-05T00:10:20.404Z,3.13
2019-03-05T00:12:48.860Z,3.40
2019-03-05T00:15:19.224Z,3.73
2019-03-05T00:17:47.755Z,3.80
2019-03-05T00:20:16.313Z,3.17
2019-03-05T00:22:44.773Z,4.13
2019-03-05T00:25:16.056Z,3.47
2019-03-05T00:27:50.276Z,4.80
2019-03-05T00:30:30.949Z,4.27
2019-03-05T00:33:08.331Z,4.27
2019-03-05T00:35:48.378Z,4.13
2019-03-05T00:38:34.679Z,3.93
2019-03-05T00:41:22.289Z,4.10
2019-03-05T00:44:13.159Z,3.40
2019-03-05T00:46:56.616Z,3.20
2019-03-05T00:49:37.018Z,3.30
2019-03-05T00:52:16.858Z,3.10
2019-03-05T00:54:57.556Z,2.97
2019-03-05T00:57:29.089Z,2.80
2019-03-05T01:00:21.498Z,2.80
2019-03-05T01:02:55.514Z,2.77
2019-03-05T01:05:55.332Z,2.70
2019-03-05T01:08:24.060Z,2.43
2019-03-05T01:10:52.685Z,2.90
2019-03-05T01:13:21.227Z,2.63
2019-03-05T01:15:50.225Z,2.97
2019-03-05T01:18:18.740Z,2.43
2019-03-05T01:20:47.228Z,2.83
2019-03-05T01:23:15.823Z,2.90
2019-03-05T01:25:46.394Z,2.90
2019-03-05T01:28:14.536Z,3.00
2019-03-05T01:31:01.646Z,2.83
2019-03-05T01:33:31.800Z,3.10
2019-03-05T01:36:10.423Z,2.63
2019-03-05T01:38:46.046Z,2.73
2019-03-05T01:41:14.765Z,2.63
2019-03-05T01:43:43.286Z,2.53
2019-03-05T01:46:11.773Z,2.77
2019-03-05T01:48:40.288Z,2.50
2019-03-05T01:51:08.773Z,2.07
2019-03-05T01:53:37.297Z,2.00
2019-03-05T01:56:05.805Z,2.40
2019-03-05T01:58:34.328Z,2.13
2019-03-05T02:01:02.980Z,1.70
2019-03-05T02:03:31.562Z,2.00
2019-03-05T02:06:00.019Z,2.00
2019-03-05T02:08:28.499Z,1.90
2019-03-05T02:10:56.955Z,2.07
2019-03-05T02:13:25.694Z,2.20
2019-03-05T02:15:54.153Z,1.93
2019-03-05T02:18:25.843Z,1.70
2019-03-05T02:20:55.357Z,1.73
2019-03-05T02:23:38.706Z,2.23
2019-03-05T02:26:35.533Z,2.53
2019-03-05T02:29:16.223Z,2.27
2019-03-05T02:31:50.373Z,2.20
2019-03-05T02:34:39.691Z,2.60
2019-03-05T02:37:31.506Z,2.53
2019-03-05T02:40:03.071Z,2.27
2019-03-05T02:42:46.499Z,2.77
2019-03-05T02:45:23.984Z,2.60
2019-03-05T02:48:11.959Z,2.83
2019-03-05T02:51:12.095Z,2.43
2019-03-05T02:53:58.524Z,2.67
2019-03-05T02:56:35.749Z,3.50
2019-03-05T02:59:03.149Z,2.23
2019-03-05T03:01:42.385Z,2.50
2019-03-05T03:04:15.041Z,2.13
2019-03-05T03:06:43.671Z,2.10
2019-03-05T03:09:29.665Z,1.97
2019-03-05T03:11:58.305Z,2.60
2019-03-05T03:14:26.853Z,2.20
2019-03-05T03:16:55.641Z,2.03
2019-03-05T03:19:24.175Z,2.17
2019-03-05T03:21:52.661Z,2.40
2019-03-05T03:24:21.127Z,1.90
2019-03-05T03:26:49.628Z,2.20
2019-03-05T03:29:18.093Z,1.97
2019-03-05T03:31:46.583Z,2.10
2019-03-05T03:34:15.141Z,1.60
2019-03-05T03:36:43.681Z,2.20
2019-03-05T03:39:12.167Z,1.80
2019-03-05T03:41:40.743Z,2.13
2019-03-05T03:44:09.194Z,2.20
2019-03-05T03:46:37.688Z,2.07
2019-03-05T03:49:06.145Z,1.90
2019-03-05T03:51:34.607Z,2.10
2019-03-05T03:54:03.232Z,2.57
2019-03-05T03:56:32.099Z,1.90
2019-03-05T03:59:00.650Z,2.13
2019-03-05T04:01:29.200Z,2.00
2019-03-05T04:03:57.853Z,1.63
2019-03-05T04:06:26.562Z,2.00
2019-03-05T04:08:55.189Z,1.90
2019-03-05T04:11:23.716Z,1.80
2019-03-05T04:13:52.195Z,1.67
2019-03-05T04:16:20.810Z,1.50
2019-03-05T04:18:49.321Z,1.53
2019-03-05T04:21:20.058Z,1.60
2019-03-05T04:23:50.654Z,1.97
2019-03-05T04:26:19.217Z,1.80
2019-03-05T04:28:47.674Z,1.57
2019-03-05T04:31:43.180Z,1.80
2019-03-05T04:34:11.642Z,1.70
2019-03-05T04:36:40.188Z,1.70
2019-03-05T04:39:11.454Z,1.70
2019-03-05T04:41:40.268Z,1.70
2019-03-05T04:44:08.958Z,1.73
2019-03-05T04:46:37.436Z,2.07
2019-03-05T04:49:13.164Z,1.37
2019-03-05T04:51:51.905Z,1.77
2019-03-05T04:54:20.354Z,2.53
2019-03-05T04:56:48.836Z,2.03
2019-03-05T04:59:17.284Z,1.73
2019-03-05T05:01:45.768Z,1.50
2019-03-05T05:04:14.306Z,1.67
2019-03-05T05:06:42.781Z,1.50
2019-03-05T05:09:11.764Z,1.70
2019-03-05T05:11:40.228Z,1.50
2019-03-05T05:14:08.700Z,2.00
2019-03-05T05:16:37.184Z,3.10
2019-03-05T05:19:05.707Z,2.50
2019-03-05T05:21:34.208Z,2.93
2019-03-05T05:24:02.667Z,2.10
2019-03-05T05:26:31.152Z,1.90
2019-03-05T05:28:59.602Z,2.13
2019-03-05T05:31:28.059Z,1.60
2019-03-05T05:33:56.538Z,1.83
2019-03-05T05:36:24.997Z,1.80
2019-03-05T05:38:53.498Z,1.20
2019-03-05T05:41:21.961Z,1.60
2019-03-05T05:43:50.559Z,1.63
2019-03-05T05:46:19.115Z,1.50
2019-03-05T05:48:47.628Z,1.60
2019-03-05T05:51:16.252Z,1.40
2019-03-05T05:53:44.848Z,2.00
2019-03-05T05:56:13.454Z,1.73
2019-03-05T05:58:42.143Z,2.43
2019-03-05T06:01:11.649Z,1.73
2019-03-05T06:03:40.131Z,1.70
2019-03-05T06:06:08.650Z,1.73
2019-03-05T06:08:37.122Z,2.00
2019-03-05T06:11:05.680Z,2.10
2019-03-05T06:13:34.158Z,2.17
2019-03-05T06:16:02.636Z,1.80
2019-03-05T06:18:34.144Z,2.10
2019-03-05T06:21:02.799Z,1.87
2019-03-05T06:23:31.341Z,1.70
2019-03-05T06:25:59.824Z,1.60
2019-03-05T06:28:28.312Z,1.63
2019-03-05T06:30:56.868Z,1.70
2019-03-05T06:33:25.323Z,2.30
2019-03-05T06:35:53.812Z,1.90
2019-03-05T06:38:22.281Z,1.97
2019-03-05T06:40:50.821Z,1.50
2019-03-05T06:43:19.294Z,1.90
2019-03-05T06:45:47.755Z,1.80
2019-03-05T06:48:16.463Z,2.20
2019-03-05T06:50:44.939Z,2.37
2019-03-05T06:53:13.415Z,1.90
2019-03-05T06:55:41.873Z,1.70
2019-03-05T06:58:11.822Z,1.50
2019-03-05T07:00:41.363Z,1.83
2019-03-05T07:03:10.175Z,1.47
2019-03-05T07:06:14.714Z,1.80
2019-03-05T07:08:52.074Z,1.63
2019-03-05T07:11:26.693Z,1.60
2019-03-05T07:14:01.303Z,1.60
2019-03-05T07:16:32.866Z,1.93
2019-03-05T07:19:01.967Z,1.40
2019-03-05T07:21:58.667Z,1.40
2019-03-05T07:24:44.338Z,1.80
2019-03-05T07:27:14.257Z,1.50
2019-03-05T07:29:42.791Z,1.53
2019-03-05T07:32:11.247Z,1.80
2019-03-05T07:34:41.439Z,1.70
2019-03-05T07:37:11.256Z,1.50
2019-03-05T07:39:39.727Z,1.70
2019-03-05T07:42:08.205Z,1.43
2019-03-05T07:44:36.686Z,1.40
2019-03-05T07:47:05.231Z,1.60
2019-03-05T07:49:43.284Z,1.47
2019-03-05T07:52:04.049Z,1.70
2019-03-05T07:54:32.545Z,1.60
2019-03-05T07:57:01.009Z,1.67
2019-03-05T07:59:29.505Z,1.97
2019-03-05T08:01:58.081Z,1.70
2019-03-05T08:04:26.638Z,1.60
2019-03-05T08:06:55.347Z,1.70
2019-03-05T08:09:34.315Z,1.53
2019-03-05T08:12:17.441Z,1.70
2019-03-05T08:15:01.094Z,1.40
2019-03-05T08:17:29.715Z,1.70
2019-03-05T08:19:58.208Z,1.63
2019-03-05T08:22:26.820Z,1.60
2019-03-05T08:24:55.428Z,1.30
2019-03-05T08:27:24.053Z,1.40
2019-03-05T08:29:52.509Z,1.70
2019-03-05T08:32:20.965Z,1.70
2019-03-05T08:34:49.510Z,1.73
2019-03-05T08:37:17.973Z,1.50
2019-03-05T08:39:46.440Z,1.83
2019-03-05T08:42:14.990Z,1.93
2019-03-05T08:44:50.358Z,1.93
2019-03-05T08:47:13.745Z,2.00
2019-03-05T08:49:42.383Z,1.60
2019-03-05T08:52:10.872Z,1.63
2019-03-05T08:54:39.324Z,1.60
2019-03-05T08:57:07.883Z,1.30
2019-03-05T08:59:36.333Z,1.50
2019-03-05T09:02:04.955Z,1.43
2019-03-05T09:04:33.483Z,1.67
2019-03-05T09:07:01.965Z,1.57
2019-03-05T09:09:30.422Z,1.70
2019-03-05T09:11:59.041Z,1.77
2019-03-05T09:14:27.591Z,1.73
2019-03-05T09:16:56.115Z,1.70
2019-03-05T09:19:24.666Z,1.40
2019-03-05T09:21:53.122Z,1.40
2019-03-05T09:24:21.628Z,1.77
2019-03-05T09:26:51.404Z,1.60
2019-03-05T09:29:20.327Z,2.10
2019-03-05T09:31:48.776Z,1.70
2019-03-05T09:34:17.307Z,2.10
2019-03-05T09:36:50.970Z,1.40
2019-03-05T09:39:16.049Z,1.30
2019-03-05T09:41:44.648Z,1.60
2019-03-05T09:44:13.131Z,2.23
2019-03-05T09:46:41.682Z,1.70
2019-03-05T09:49:10.396Z,1.60
2019-03-05T09:51:39.042Z,1.40
2019-03-05T09:54:07.640Z,1.43
2019-03-05T09:56:36.565Z,1.50
2019-03-05T09:59:05.547Z,1.50
2019-03-05T10:01:34.187Z,1.70
2019-03-05T10:04:02.711Z,1.73
2019-03-05T10:06:31.206Z,1.50
2019-03-05T10:08:59.746Z,1.60
2019-03-05T10:11:28.278Z,2.37
2019-03-05T10:13:57.030Z,1.73
2019-03-05T10:16:25.508Z,1.70
2019-03-05T10:18:53.975Z,1.97
2019-03-05T10:21:22.456Z,1.50
2019-03-05T10:23:51.154Z,1.83
2019-03-05T10:26:19.698Z,1.30
2019-03-05T10:28:48.247Z,1.60
2019-03-05T10:31:18.603Z,2.10
2019-03-05T10:33:46.963Z,1.60
2019-03-05T10:36:15.561Z,1.50
2019-03-05T10:38:44.114Z,1.20
2019-03-05T10:41:12.711Z,2.43
2019-03-05T10:43:41.236Z,1.30
2019-03-05T10:46:10.276Z,1.30
2019-03-05T10:48:38.726Z,1.43
2019-03-05T10:51:07.336Z,1.40
2019-03-05T10:53:35.882Z,1.30
2019-03-05T10:56:05.109Z,1.43
2019-03-05T10:58:34.479Z,1.27
2019-03-05T11:01:05.340Z,1.47
2019-03-05T11:03:33.933Z,1.23
2019-03-05T11:06:05.756Z,1.70
2019-03-05T11:08:34.216Z,1.60
2019-03-05T11:11:13.164Z,2.73
2019-03-05T11:13:33.180Z,1.70
2019-03-05T11:16:03.408Z,1.67
2019-03-05T11:18:32.004Z,1.30
2019-03-05T11:21:00.558Z,1.87
2019-03-05T11:23:29.020Z,1.40
2019-03-05T11:25:57.495Z,1.10
2019-03-05T11:28:26.016Z,1.40
2019-03-05T11:30:54.491Z,1.33
2019-03-05T11:33:22.968Z,1.30
2019-03-05T11:35:51.494Z,1.40
2019-03-05T11:38:20.504Z,1.63
2019-03-05T11:40:48.968Z,1.40
2019-03-05T11:43:18.085Z,1.47
2019-03-05T11:45:46.603Z,1.37
2019-03-05T11:48:16.287Z,1.27
2019-03-05T11:50:45.093Z,1.47
2019-03-05T11:53:13.782Z,1.27
2019-03-05T11:55:42.372Z,1.50
2019-03-05T11:58:10.850Z,1.20
2019-03-05T12:00:43.901Z,1.10
2019-03-05T12:03:12.376Z,1.53
2019-03-05T12:05:40.899Z,2.07
2019-03-05T12:08:09.458Z,1.20
2019-03-05T12:10:37.983Z,1.10
2019-03-05T12:13:06.588Z,1.17
2019-03-05T12:15:42.044Z,1.40
2019-03-05T12:18:10.592Z,1.30
2019-03-05T12:20:39.132Z,1.50
2019-03-05T12:23:10.389Z,1.20
2019-03-05T12:25:39.938Z,1.70
2019-03-05T12:28:10.719Z,1.20
2019-03-05T12:30:38.366Z,1.27
2019-03-05T12:33:06.891Z,1.30
2019-03-05T12:35:35.693Z,1.67
2019-03-05T12:38:04.547Z,1.10
2019-03-05T12:40:33.078Z,1.20
2019-03-05T12:43:01.558Z,1.50
2019-03-05T12:45:30.098Z,1.20
2019-03-05T12:47:58.577Z,1.00
2019-03-05T12:50:35.676Z,1.10
2019-03-05T12:53:04.671Z,1.13
2019-03-05T12:55:33.151Z,1.20
2019-03-05T12:58:01.768Z,1.13
2019-03-05T13:00:32.178Z,1.13
2019-03-05T13:03:00.629Z,1.50
2019-03-05T13:05:29.172Z,1.17
2019-03-05T13:07:57.806Z,1.10
2019-03-05T13:10:36.042Z,1.20
2019-03-05T13:13:03.890Z,1.40
2019-03-05T13:15:40.507Z,1.30
2019-03-05T13:18:09.118Z,1.20
2019-03-05T13:20:37.579Z,1.10
2019-03-05T13:23:09.440Z,1.10
2019-03-05T13:25:38.323Z,1.50
2019-03-05T13:28:06.633Z,1.20
2019-03-05T13:30:35.255Z,1.03
2019-03-05T13:33:03.787Z,1.30
2019-03-05T13:35:32.419Z,1.40
2019-03-05T13:38:09.644Z,1.20
2019-03-05T13:40:40.496Z,0.93
2019-03-05T13:43:08.838Z,1.20
2019-03-05T13:45:37.447Z,1.10
2019-03-05T13:48:26.905Z,1.43
2019-03-05T13:51:13.339Z,1.20
2019-03-05T13:54:11.759Z,0.90
2019-03-05T13:56:58.237Z,1.13
2019-03-05T13:59:34.596Z,1.40
2019-03-05T14:02:03.221Z,1.10
2019-03-05T14:04:37.335Z,1.27
2019-03-05T14:07:38.672Z,1.37
2019-03-05T14:10:07.279Z,1.20
2019-03-05T14:12:35.777Z,1.30
2019-03-05T14:15:06.192Z,1.33
2019-03-05T14:17:35.113Z,1.50
2019-03-05T14:20:05.354Z,1.63
2019-03-05T14:22:34.127Z,1.33
2019-03-05T14:25:03.135Z,1.50
2019-03-05T14:27:31.704Z,1.53
2019-03-05T14:30:02.526Z,1.10
2019-03-05T14:32:30.496Z,1.57
2019-03-05T14:35:00.646Z,1.70
2019-03-05T14:37:30.014Z,1.50
2019-03-05T14:40:22.192Z,1.30
2019-03-05T14:42:29.801Z,1.50
2019-03-05T14:44:58.326Z,1.03
2019-03-05T14:47:26.883Z,1.43
2019-03-05T14:49:55.561Z,1.50
2019-03-05T14:52:24.089Z,1.80
2019-03-05T14:54:52.579Z,1.67
2019-03-05T14:57:21.237Z,1.50
2019-03-05T14:59:50.055Z,1.43
2019-03-05T15:02:18.724Z,1.10
2019-03-05T15:04:47.246Z,1.10
2019-03-05T15:07:16.544Z,1.20
2019-03-05T15:09:45.184Z,1.10
2019-03-05T15:12:13.870Z,1.20
2019-03-05T15:14:42.360Z,1.20
2019-03-05T15:17:10.952Z,1.30
2019-03-05T15:19:39.726Z,0.93
2019-03-05T15:22:08.260Z,1.07
2019-03-05T15:24:36.835Z,0.90
2019-03-05T15:27:05.460Z,0.80
2019-03-05T15:29:33.952Z,0.90
2019-03-05T15:32:02.476Z,1.00
2019-03-05T15:34:31.067Z,1.10
2019-03-05T15:36:59.628Z,0.90
2019-03-05T15:39:28.086Z,1.30
2019-03-05T15:41:56.590Z,1.20
2019-03-05T15:44:25.120Z,1.20
2019-03-05T15:46:53.650Z,1.13
2019-03-05T15:49:22.406Z,1.20
2019-03-05T15:51:51.069Z,1.10
2019-03-05T15:54:19.654Z,1.30
2019-03-05T15:56:48.110Z,1.07
2019-03-05T15:59:16.588Z,1.10
2019-03-05T16:01:45.151Z,1.30
2019-03-05T16:04:13.709Z,1.80
2019-03-05T16:06:42.224Z,2.20
2019-03-05T16:09:16.181Z,1.83
2019-03-05T16:11:44.796Z,1.40
2019-03-05T16:14:13.348Z,1.60
2019-03-05T16:16:41.806Z,1.70
2019-03-05T16:19:12.491Z,1.60
2019-03-05T16:21:41.278Z,1.40
2019-03-05T16:24:10.769Z,1.60
2019-03-05T16:26:39.311Z,1.60
2019-03-05T16:29:08.047Z,1.40
2019-03-05T16:31:53.174Z,1.40
2019-03-05T16:34:23.292Z,1.53
2019-03-05T16:36:53.558Z,1.90
2019-03-05T16:39:31.738Z,1.90
2019-03-05T16:42:05.165Z,1.97
2019-03-05T16:44:36.068Z,1.93
2019-03-05T16:47:08.892Z,2.20
2019-03-05T16:49:39.107Z,1.70
2019-03-05T16:52:12.408Z,3.50
2019-03-05T16:54:48.335Z,2.00
2019-03-05T16:57:33.352Z,1.70
2019-03-05T17:00:03.532Z,2.50
2019-03-05T17:02:37.035Z,1.80
2019-03-05T17:05:27.064Z,1.93
2019-03-05T17:07:57.169Z,2.20
2019-03-05T17:10:30.201Z,1.50
2019-03-05T17:12:59.047Z,1.80
2019-03-05T17:15:27.519Z,3.13
2019-03-05T17:17:56.118Z,1.67
2019-03-05T17:20:24.673Z,1.73
2019-03-05T17:22:53.223Z,1.23
2019-03-05T17:25:22.946Z,1.57
2019-03-05T17:27:51.494Z,1.80
2019-03-05T17:30:20.297Z,1.73
2019-03-05T17:32:49.408Z,1.53
2019-03-05T17:35:18.119Z,1.77
2019-03-05T17:37:47.044Z,1.90
2019-03-05T17:40:16.002Z,1.90
2019-03-05T17:42:44.457Z,2.00
2019-03-05T17:45:18.436Z,2.00
2019-03-05T17:47:46.913Z,2.17
2019-03-05T17:50:15.603Z,2.57
2019-03-05T17:52:44.375Z,2.13
2019-03-05T17:55:24.209Z,2.20
2019-03-05T17:57:49.099Z,2.20
2019-03-05T18:00:33.007Z,2.00
2019-03-05T18:03:01.534Z,2.40
2019-03-05T18:05:30.154Z,2.47
2019-03-05T18:07:58.805Z,2.80
2019-03-05T18:10:27.521Z,2.60
2019-03-05T18:12:58.299Z,2.60
2019-03-05T18:15:28.755Z,2.90
2019-03-05T18:17:57.066Z,3.07
2019-03-05T18:20:25.737Z,2.23
2019-03-05T18:22:54.505Z,2.00
2019-03-05T18:25:23.045Z,2.13
2019-03-05T18:27:51.744Z,2.37
2019-03-05T18:30:30.386Z,2.03
2019-03-05T18:32:59.035Z,2.00
2019-03-05T18:35:27.572Z,2.10
2019-03-05T18:37:56.043Z,2.17
2019-03-05T18:40:25.219Z,2.50
2019-03-05T18:42:53.907Z,2.00
2019-03-05T18:45:32.794Z,2.33
2019-03-05T18:48:01.352Z,2.33
2019-03-05T18:50:30.051Z,2.70
2019-03-05T18:52:59.591Z,2.67
2019-03-05T18:55:28.352Z,2.30
2019-03-05T18:57:57.119Z,2.50
2019-03-05T19:00:27.088Z,2.07
2019-03-05T19:02:58.537Z,2.10
2019-03-05T19:05:27.327Z,2.57
2019-03-05T19:07:56.271Z,2.70
2019-03-05T19:10:25.421Z,2.60
2019-03-05T19:12:54.022Z,2.87
2019-03-05T19:15:24.753Z,2.87
2019-03-05T19:17:53.335Z,2.73
2019-03-05T19:20:29.622Z,2.83
2019-03-05T19:22:59.821Z,3.00
2019-03-05T19:25:33.644Z,3.20
2019-03-05T19:28:02.177Z,2.57
2019-03-05T19:30:45.042Z,2.57
2019-03-05T19:33:13.718Z,3.20
2019-03-05T19:35:42.272Z,2.40
2019-03-05T19:38:10.755Z,2.70
2019-03-05T19:40:46.613Z,2.70
2019-03-05T19:43:15.153Z,2.90
2019-03-05T19:45:43.685Z,2.63
2019-03-05T19:48:12.237Z,2.90
2019-03-05T19:50:40.966Z,3.03
2019-03-05T19:53:09.531Z,3.20
2019-03-05T19:55:38.055Z,3.23
2019-03-05T19:58:11.091Z,3.60
2019-03-05T20:00:52.766Z,3.93
2019-03-05T20:03:21.386Z,4.17
2019-03-05T20:05:49.842Z,3.27
2019-03-05T20:08:18.576Z,3.60
2019-03-05T20:10:47.280Z,3.40
2019-03-05T20:13:16.102Z,3.73
2019-03-05T20:15:44.624Z,3.90
2019-03-05T20:18:13.125Z,3.40
2019-03-05T20:20:43.291Z,3.60
2019-03-05T20:23:11.740Z,4.23
2019-03-05T20:25:40.580Z,3.63
2019-03-05T20:28:09.122Z,4.43
2019-03-05T20:30:37.842Z,4.53
2019-03-05T20:33:06.621Z,3.80
2019-03-05T20:35:35.254Z,4.23
2019-03-05T20:38:04.630Z,4.77
2019-03-05T20:40:33.424Z,4.73
2019-03-05T20:43:05.221Z,4.97
2019-03-05T20:45:51.848Z,4.70
2019-03-05T20:48:20.618Z,4.50
2019-03-05T20:50:49.161Z,4.17
2019-03-05T20:53:17.630Z,4.30
2019-03-05T20:55:46.430Z,4.80
2019-03-05T20:58:14.969Z,4.53
2019-03-05T21:00:43.770Z,4.13
2019-03-05T21:03:12.706Z,5.20
2019-03-05T21:05:44.401Z,4.40
2019-03-05T21:08:13.012Z,4.97
2019-03-05T21:10:41.649Z,5.10
2019-03-05T21:13:10.632Z,4.67
2019-03-05T21:15:39.226Z,4.47
2019-03-05T21:18:19.571Z,5.17
2019-03-05T21:20:48.349Z,4.83
2019-03-05T21:23:17.123Z,5.00
2019-03-05T21:25:45.665Z,4.50
2019-03-05T21:28:14.134Z,5.20
2019-03-05T21:30:42.756Z,5.70
2019-03-05T21:33:11.445Z,5.43
2019-03-05T21:35:40.191Z,5.97
2019-03-05T21:38:08.745Z,6.37
2019-03-05T21:40:37.338Z,5.93
2019-03-05T21:43:05.914Z,5.90
2019-03-05T21:45:46.095Z,6.27
2019-03-05T21:48:14.730Z,5.47
2019-03-05T21:50:43.432Z,4.80
2019-03-05T21:53:12.011Z,5.10
2019-03-05T21:55:40.488Z,5.47
2019-03-05T21:58:09.396Z,5.53
2019-03-05T22:00:39.992Z,5.90
2019-03-05T22:03:08.520Z,5.13
2019-03-05T22:05:37.236Z,5.10
2019-03-05T22:08:05.758Z,4.73
2019-03-05T22:10:34.522Z,5.70
2019-03-05T22:13:03.006Z,5.13
2019-03-05T22:15:33.120Z,5.50
2019-03-05T22:18:01.779Z,5.50
2019-03-05T22:20:30.332Z,4.57
2019-03-05T22:22:59.065Z,4.93
2019-03-05T22:25:29.097Z,4.50
2019-03-05T22:27:57.992Z,4.03
2019-03-05T22:30:32.437Z,4.40
2019-03-05T22:33:01.070Z,5.00
2019-03-05T22:35:29.921Z,4.77
2019-03-05T22:37:58.573Z,5.07
2019-03-05T22:40:28.062Z,4.90
2019-03-05T22:42:56.728Z,5.80
2019-03-05T22:45:26.449Z,5.00
2019-03-05T22:47:54.973Z,4.80
2019-03-05T22:50:23.607Z,4.73
2019-03-05T22:52:52.592Z,4.90
2019-03-05T22:55:21.213Z,4.90
2019-03-05T22:57:49.775Z,4.50
2019-03-05T23:00:25.735Z,5.83
2019-03-05T23:02:54.320Z,5.07
2019-03-05T23:05:23.074Z,4.87
2019-03-05T23:07:52.217Z,4.73
2019-03-05T23:10:21.049Z,5.63
2019-03-05T23:12:49.645Z,5.63
2019-03-05T23:15:18.427Z,5.83
2019-03-05T23:17:47.038Z,5.30
2019-03-05T23:20:16.635Z,4.90
2019-03-05T23:22:45.525Z,4.80
2019-03-05T23:25:15.932Z,4.90
2019-03-05T23:27:44.609Z,4.87
2019-03-05T23:30:19.233Z,5.37
2019-03-05T23:32:50.125Z,5.53
2019-03-05T23:35:18.707Z,5.57
2019-03-05T23:37:47.333Z,5.27
2019-03-05T23:40:16.979Z,4.63
2019-03-05T23:42:45.635Z,5.50
2019-03-05T23:45:18.436Z,5.77
2019-03-05T23:47:47.205Z,4.60
2019-03-05T23:50:17.774Z,4.83
2019-03-05T23:52:46.403Z,5.17
2019-03-05T23:55:15.195Z,5.40
2019-03-05T23:57:43.950Z,6.70
